createdAt,value
2017-04-22T09:47:16.136Z,42.00
2017-04-22T09:48:13.684Z,45.90
2017-04-22T09:49:11.055Z,44.00
2017-04-22T09:50:08.481Z,42.30
2017-04-22T09:51:06.157Z,43.80
2017-04-22T09:52:03.692Z,41.60
2017-04-22T09:53:01.278Z,41.80
2017-04-22T09:53:58.882Z,41.60
2017-04-22T09:58:14.192Z,43.90
2017-04-22T09:59:11.843Z,43.60
2017-04-22T10:00:10.259Z,43.60
2017-04-22T10:01:09.297Z,43.10
2017-04-22T10:02:08.797Z,45.00
2017-04-22T10:03:06.291Z,45.00
2017-04-22T10:04:05.385Z,44.60
2017-04-22T10:05:03.210Z,43.90
2017-04-22T10:06:03.921Z,44.50
2017-04-22T10:07:01.501Z,44.50
2017-04-22T10:08:00.137Z,44.40
2017-04-22T10:08:59.169Z,41.90
2017-04-22T10:09:57.180Z,41.90
2017-04-22T10:10:55.766Z,43.10
2017-04-22T10:11:53.094Z,43.90
2017-04-22T10:12:50.514Z,42.80
2017-04-22T10:13:49.586Z,43.60
2017-04-22T10:14:47.151Z,43.50
2017-04-22T10:15:45.266Z,44.90
2017-04-22T10:16:42.615Z,44.90
2017-04-22T10:17:41.671Z,45.00
2017-04-22T10:18:39.981Z,45.30
2017-04-22T10:19:37.993Z,46.10
2017-04-22T10:20:35.468Z,43.80
2017-04-22T10:21:34.326Z,45.10
2017-04-22T10:22:31.802Z,44.50
2017-04-22T10:23:29.824Z,43.90
2017-04-22T10:24:28.113Z,44.20
2017-04-22T10:25:27.790Z,45.30
2017-04-22T10:26:25.217Z,45.30
2017-04-22T10:27:22.616Z,46.70
2017-04-22T10:28:19.977Z,47.50
2017-04-22T10:29:18.046Z,46.50
2017-04-22T10:30:15.429Z,46.50
2017-04-22T10:31:13.142Z,45.20
2017-04-22T10:32:10.492Z,46.50
2017-04-22T10:33:09.144Z,46.40
2017-04-22T10:34:08.094Z,45.30
2017-04-22T10:35:06.084Z,45.40
2017-04-22T10:36:04.161Z,45.10
2017-04-22T10:37:02.321Z,45.90
2017-04-22T10:37:59.974Z,45.90
2017-04-22T10:38:57.343Z,44.30
2017-04-22T10:39:55.662Z,42.40
2017-04-22T10:40:53.990Z,42.20
2017-04-22T10:41:51.366Z,44.10
2017-04-22T10:42:49.781Z,45.00
2017-04-22T10:43:47.116Z,46.30
2017-04-22T10:44:45.221Z,43.30
2017-04-22T10:45:43.213Z,44.30
2017-04-22T10:46:42.149Z,42.80
2017-04-22T10:47:40.066Z,42.40
2017-04-22T10:48:39.016Z,42.50
2017-04-22T10:49:36.434Z,43.70
2017-04-22T10:50:34.617Z,41.60
2017-04-22T10:51:31.948Z,42.50
2017-04-22T10:52:29.383Z,43.30
2017-04-22T10:53:28.790Z,43.50
2017-04-22T10:54:26.714Z,43.50
2017-04-22T10:55:24.041Z,43.30
2017-04-22T10:56:22.293Z,42.70
2017-04-22T10:57:20.228Z,42.30
2017-04-22T10:58:18.919Z,44.60
2017-04-22T10:59:16.875Z,44.60
2017-04-22T11:00:15.710Z,44.00
2017-04-22T11:01:14.359Z,42.10
2017-04-22T11:02:11.884Z,44.10
2017-04-22T11:03:09.267Z,43.40
2017-04-22T11:04:06.657Z,42.50
2017-04-22T11:05:04.679Z,44.10
2017-04-22T11:06:02.025Z,43.80
2017-04-22T11:06:59.465Z,43.70
2017-04-22T11:07:58.499Z,51.10
2017-04-22T11:08:55.897Z,51.10
2017-04-22T11:09:53.995Z,49.40
2017-04-22T11:10:52.005Z,49.40
2017-04-22T11:11:49.411Z,50.50
2017-04-22T11:12:46.834Z,50.50
2017-04-22T11:13:44.899Z,51.00
2017-04-22T11:14:46.487Z,51.80
2017-04-22T11:15:43.840Z,56.30
2017-04-22T11:16:41.358Z,59.00
2017-04-22T11:17:39.544Z,58.70
2017-04-22T11:18:36.876Z,60.50
2017-04-22T11:19:34.207Z,59.70
2017-04-22T11:20:31.569Z,63.00
2017-04-22T11:21:28.949Z,62.30
2017-04-22T11:22:27.254Z,59.20
2017-04-22T11:23:24.689Z,61.20
2017-04-22T11:24:22.038Z,59.90
2017-04-22T11:25:19.465Z,60.80
2017-04-22T11:26:16.838Z,59.60
2017-04-22T11:27:14.398Z,59.20
2017-04-22T11:28:12.625Z,58.90
2017-04-22T11:29:12.183Z,57.90
2017-04-22T11:30:10.798Z,57.20
2017-04-22T11:31:09.482Z,58.10
2017-04-22T11:32:06.868Z,57.80
2017-04-22T11:33:04.401Z,58.20
2017-04-22T11:34:02.506Z,53.30
2017-04-22T11:35:00.528Z,53.30
2017-04-22T11:35:58.921Z,54.10
2017-04-22T11:36:57.500Z,53.70
2017-04-22T11:37:54.879Z,54.00
2017-04-22T11:38:53.119Z,52.20
2017-04-22T11:39:50.520Z,50.60
2017-04-22T11:40:47.890Z,50.70
2017-04-22T11:41:45.854Z,51.20
2017-04-22T11:42:43.222Z,49.90
2017-04-22T11:43:42.181Z,50.30
2017-04-22T11:44:40.265Z,49.40
2017-04-22T11:45:37.600Z,51.60
2017-04-22T11:46:35.016Z,52.60
2017-04-22T11:47:32.369Z,53.00
2017-04-22T11:48:30.275Z,54.50
2017-04-22T11:49:27.681Z,54.80
2017-04-22T11:50:25.706Z,56.40
2017-04-22T11:51:23.091Z,56.40
2017-04-22T11:52:20.415Z,57.60
2017-04-22T11:53:19.109Z,58.00
2017-04-22T11:54:16.478Z,58.40
2017-04-22T11:55:13.942Z,57.70
2017-04-22T11:56:11.276Z,58.00
2017-04-22T11:57:09.235Z,57.50
2017-04-22T11:58:06.586Z,59.70
2017-04-22T11:59:03.961Z,61.30
2017-04-22T12:00:01.410Z,60.30
2017-04-22T12:00:58.783Z,61.60
2017-04-22T12:01:56.701Z,60.10
2017-04-22T12:02:54.030Z,57.70
2017-04-22T12:03:51.391Z,57.60
2017-04-22T12:04:49.362Z,59.70
2017-04-22T12:05:47.400Z,57.20
2017-04-22T12:06:45.703Z,57.90
2017-04-22T12:07:44.339Z,57.70
2017-04-22T12:08:43.095Z,61.00
2017-04-22T12:09:40.441Z,53.80
2017-04-22T12:10:39.622Z,52.50
2017-04-22T12:11:37.068Z,53.40
2017-04-22T12:12:34.479Z,53.00
2017-04-22T12:13:31.887Z,53.30
2017-04-22T12:14:29.266Z,54.40
2017-04-22T12:15:27.150Z,53.40
2017-04-22T12:16:24.473Z,56.90
2017-04-22T12:17:23.455Z,58.00
2017-04-22T12:18:20.793Z,56.80
2017-04-22T12:19:20.229Z,56.00
2017-04-22T12:20:19.894Z,56.80
2017-04-22T12:21:17.265Z,56.70
2017-04-22T12:22:14.686Z,58.40
2017-04-22T12:23:12.147Z,58.80
2017-04-22T12:24:10.409Z,59.10
2017-04-22T12:25:07.764Z,58.70
2017-04-22T12:26:05.876Z,60.50
2017-04-22T12:27:05.541Z,62.00
2017-04-22T12:28:03.565Z,59.90
2017-04-22T12:29:01.948Z,59.00
2017-04-22T12:30:00.132Z,56.90
2017-04-22T12:30:57.479Z,56.10
2017-04-22T12:31:56.307Z,56.20
2017-04-22T12:32:54.659Z,56.30
2017-04-22T12:33:52.698Z,55.00
2017-04-22T12:34:51.108Z,51.30
2017-04-22T12:35:49.288Z,49.40
2017-04-22T12:36:46.665Z,44.40
2017-04-22T12:37:44.753Z,43.80
2017-04-22T12:38:42.234Z,45.60
2017-04-22T12:39:39.573Z,45.70
2017-04-22T12:40:36.921Z,48.30
2017-04-22T12:41:35.830Z,48.10
2017-04-22T12:42:33.458Z,48.90
2017-04-22T12:43:31.891Z,47.80
2017-04-22T12:44:29.293Z,48.20
2017-04-22T12:45:26.675Z,51.10
2017-04-22T12:46:24.657Z,50.90
2017-04-22T12:47:22.001Z,50.00
2017-04-22T12:48:20.351Z,48.80
2017-04-22T12:49:18.482Z,48.00
2017-04-22T12:50:15.953Z,48.00
2017-04-22T12:51:14.762Z,45.70
2017-04-22T12:52:12.127Z,45.30
2017-04-22T12:53:09.462Z,46.00
2017-04-22T12:54:06.842Z,43.70
2017-04-22T12:55:05.661Z,46.30
2017-04-22T12:56:04.781Z,46.30
2017-04-22T12:57:03.148Z,48.80
2017-04-22T12:58:01.494Z,45.10
2017-04-22T12:58:58.850Z,42.60
2017-04-22T12:59:57.437Z,44.50
2017-04-22T13:00:57.819Z,42.90
2017-04-22T13:01:57.178Z,42.10
2017-04-22T13:02:57.042Z,40.30
2017-04-22T13:03:55.720Z,41.00
2017-04-22T13:04:53.833Z,39.70
2017-04-22T13:05:53.225Z,38.90
2017-04-22T13:06:50.589Z,38.90
2017-04-22T13:07:47.926Z,40.30
2017-04-22T13:08:45.266Z,41.20
2017-04-22T13:09:45.029Z,40.10
2017-04-22T13:10:43.136Z,40.10
2017-04-22T13:11:40.504Z,40.60
2017-04-22T13:12:37.850Z,40.10
2017-04-22T13:13:36.051Z,41.60
2017-04-22T13:14:34.989Z,45.10
2017-04-22T13:15:34.082Z,44.10
2017-04-22T13:16:31.561Z,43.60
2017-04-22T13:17:29.735Z,40.10
2017-04-22T13:18:27.316Z,39.90
2017-04-22T13:19:24.760Z,39.70
2017-04-22T13:20:22.244Z,39.40
2017-04-22T13:21:19.625Z,39.30
2017-04-22T13:22:17.057Z,40.80
2017-04-22T13:23:14.407Z,39.20
2017-04-22T13:24:11.806Z,39.40
2017-04-22T13:25:09.846Z,39.30
2017-04-22T13:26:07.227Z,40.40
2017-04-22T13:27:04.670Z,41.40
2017-04-22T13:28:02.012Z,40.80
2017-04-22T13:28:59.338Z,40.00
2017-04-22T13:29:56.779Z,39.60
2017-04-22T13:30:54.242Z,39.00
2017-04-22T13:31:51.579Z,39.60
2017-04-22T13:32:48.943Z,40.00
2017-04-22T13:33:46.316Z,40.10
2017-04-22T13:34:44.394Z,40.50
2017-04-22T13:35:41.825Z,39.70
2017-04-22T13:36:40.570Z,39.30
2017-04-22T13:37:38.082Z,39.70
2017-04-22T13:38:35.715Z,39.10
2017-04-22T13:39:33.090Z,39.20
2017-04-22T13:40:30.457Z,39.00
2017-04-22T13:41:27.964Z,38.30
2017-04-22T13:42:25.460Z,37.60
2017-04-22T13:43:23.689Z,37.60
2017-04-22T13:44:22.006Z,37.60
2017-04-22T13:45:19.661Z,38.00
2017-04-22T13:46:17.285Z,37.60
2017-04-22T13:47:15.827Z,37.30
2017-04-22T13:48:13.594Z,37.40
2017-04-22T13:49:11.160Z,37.60
2017-04-22T13:50:08.504Z,37.70
2017-04-22T13:51:06.100Z,39.50
2017-04-22T13:52:03.697Z,37.30
2017-04-22T13:53:01.252Z,38.10
2017-04-22T13:53:58.617Z,37.40
2017-04-22T13:54:56.222Z,39.20
2017-04-22T13:55:54.430Z,37.10
2017-04-22T13:56:51.807Z,36.20
2017-04-22T13:57:49.141Z,37.50
2017-04-22T13:58:46.672Z,35.50
2017-04-22T13:59:44.006Z,35.50
2017-04-22T14:00:41.336Z,35.50
2017-04-22T14:01:38.761Z,35.50
2017-04-22T14:02:36.306Z,35.20
2017-04-22T14:03:34.510Z,36.90
2017-04-22T14:04:32.050Z,36.60
2017-04-22T14:05:29.542Z,36.00
2017-04-22T14:06:27.697Z,36.70
2017-04-22T14:07:25.351Z,36.70
2017-04-22T14:08:22.750Z,36.90
2017-04-22T14:09:20.312Z,36.70
2017-04-22T14:10:18.530Z,35.10
2017-04-22T14:11:16.860Z,36.70
2017-04-22T14:12:15.367Z,35.70
2017-04-22T14:13:13.853Z,36.50
2017-04-22T14:14:12.077Z,36.40
2017-04-22T14:15:10.284Z,37.00
2017-04-22T14:16:08.665Z,38.00
2017-04-22T14:17:06.855Z,37.90
2017-04-22T14:18:04.377Z,38.00
2017-04-22T14:19:02.750Z,38.00
2017-04-22T14:20:00.334Z,37.90
2017-04-22T14:20:57.788Z,37.10
2017-04-22T14:21:55.295Z,37.70
2017-04-22T14:22:52.978Z,38.20
2017-04-22T14:23:50.410Z,37.10
2017-04-22T14:24:48.158Z,36.60
2017-04-22T14:25:46.387Z,37.50
2017-04-22T14:26:43.884Z,38.00
2017-04-22T14:27:41.550Z,37.50
2017-04-22T14:28:39.036Z,37.60
2017-04-22T14:29:36.371Z,37.70
2017-04-22T14:30:34.493Z,38.50
2017-04-22T14:31:32.832Z,37.80
2017-04-22T14:32:30.383Z,37.80
2017-04-22T14:33:28.467Z,38.00
2017-04-22T14:34:26.626Z,37.80
2017-04-22T14:35:24.167Z,37.70
2017-04-22T14:36:22.584Z,37.70
2017-04-22T14:37:20.028Z,36.00
2017-04-22T14:38:17.666Z,34.90
2017-04-22T14:39:15.128Z,35.30
2017-04-22T14:40:13.037Z,36.00
2017-04-22T14:41:10.526Z,36.00
2017-04-22T14:42:08.723Z,37.40
2017-04-22T14:43:06.137Z,37.30
2017-04-22T14:44:03.666Z,37.30
2017-04-22T14:45:01.598Z,36.70
2017-04-22T14:45:59.343Z,36.30
2017-04-22T14:46:56.799Z,36.70
2017-04-22T14:47:54.382Z,36.00
2017-04-22T14:48:51.931Z,35.40
2017-04-22T14:49:49.528Z,35.70
2017-04-22T14:50:47.058Z,35.90
2017-04-22T14:51:44.769Z,37.80
2017-04-22T14:52:42.990Z,36.60
2017-04-22T14:53:40.354Z,37.10
2017-04-22T14:54:37.901Z,36.40
2017-04-22T14:55:35.443Z,36.40
2017-04-22T14:56:32.937Z,37.50
2017-04-22T14:57:31.486Z,37.20
2017-04-22T14:58:28.892Z,37.60
2017-04-22T14:59:27.626Z,37.10
2017-04-22T15:00:24.756Z,37.60
2017-04-22T15:01:22.496Z,37.90
2017-04-22T15:02:19.917Z,38.80
2017-04-22T15:03:17.362Z,39.00
2017-04-22T15:04:15.026Z,39.70
2017-04-22T15:05:13.349Z,39.70
2017-04-22T15:06:10.930Z,39.60
2017-04-22T15:07:08.310Z,39.50
2017-04-22T15:08:05.684Z,39.50
2017-04-22T15:09:04.179Z,39.00
2017-04-22T15:10:02.825Z,39.30
2017-04-22T15:11:00.300Z,39.50
2017-04-22T15:11:57.833Z,39.90
2017-04-22T15:12:56.387Z,40.10
2017-04-22T15:13:54.117Z,40.20
2017-04-22T15:14:52.753Z,41.00
2017-04-22T15:15:50.377Z,41.00
2017-04-22T15:16:47.627Z,38.60
2017-04-22T15:17:45.622Z,39.20
2017-04-22T15:18:42.420Z,39.10
2017-04-22T15:19:39.789Z,39.40
2017-04-22T15:20:38.903Z,39.10
2017-04-22T15:21:36.363Z,39.00
2017-04-22T15:22:33.940Z,39.50
2017-04-22T15:23:31.698Z,39.20
2017-04-22T15:24:29.066Z,38.90
2017-04-22T15:25:27.303Z,39.10
2017-04-22T15:26:25.477Z,40.50
2017-04-22T15:27:23.528Z,38.70
2017-04-22T15:28:20.912Z,38.70
2017-04-22T15:29:20.001Z,38.60
2017-04-22T15:30:20.456Z,40.10
2017-04-22T15:31:19.750Z,39.00
2017-04-22T15:32:19.133Z,39.90
2017-04-22T15:33:18.029Z,40.00
2017-04-22T15:34:17.045Z,40.30
2017-04-22T15:35:16.215Z,40.20
2017-04-22T15:36:15.911Z,40.70
2017-04-22T15:37:14.918Z,40.90
2017-04-22T15:38:12.497Z,40.90
2017-04-22T15:39:09.723Z,41.20
2017-04-22T15:40:07.196Z,40.50
2017-04-22T15:41:04.711Z,41.10
2017-04-22T15:42:02.615Z,41.70
2017-04-22T15:42:59.729Z,40.50
2017-04-22T15:45:27.552Z,41.20
2017-04-22T15:46:43.391Z,41.20
2017-04-22T15:47:52.941Z,39.80
2017-04-22T15:48:50.220Z,40.80
2017-04-22T15:49:47.544Z,39.40
2017-04-22T15:50:48.493Z,40.40
2017-04-22T15:51:47.053Z,39.60
2017-04-22T15:52:46.152Z,39.50
2017-04-22T15:53:45.156Z,39.70
2017-04-22T15:54:41.288Z,40.20
2017-04-22T15:55:38.867Z,38.90
2017-04-22T15:56:36.119Z,38.80
2017-04-22T15:57:34.950Z,38.50
2017-04-22T15:58:33.238Z,39.70
2017-04-22T15:59:31.811Z,38.60
2017-04-22T16:00:28.658Z,37.90
2017-04-22T16:01:26.409Z,38.40
2017-04-22T16:02:23.491Z,38.90
2017-04-22T16:03:20.997Z,39.80
2017-04-22T16:04:18.461Z,39.50
2017-04-22T16:05:15.855Z,40.20
2017-04-22T16:06:13.443Z,39.30
2017-04-22T16:07:11.252Z,39.20
2017-04-22T16:08:08.603Z,39.10
2017-04-22T16:09:06.784Z,38.90
2017-04-22T16:10:04.903Z,39.00
2017-04-22T16:11:01.564Z,38.50
2017-04-22T16:11:58.860Z,39.80
2017-04-22T16:12:56.347Z,39.00
2017-04-22T16:13:53.717Z,39.30
2017-04-22T16:14:51.427Z,39.10
2017-04-22T16:15:49.491Z,40.00
2017-04-22T16:16:47.486Z,40.30
2017-04-22T16:17:45.227Z,41.10
2017-04-22T16:18:42.392Z,41.00
2017-04-22T16:19:40.153Z,42.20
2017-04-22T16:20:37.982Z,41.40
2017-04-22T16:21:34.883Z,41.20
2017-04-22T16:22:32.456Z,41.50
2017-04-22T16:23:30.514Z,41.40
2017-04-22T16:24:27.908Z,41.20
2017-04-22T16:25:26.347Z,41.80
2017-04-22T16:26:23.778Z,40.80
2017-04-22T16:27:23.846Z,41.00
2017-04-22T16:28:18.848Z,41.30
2017-04-22T16:29:16.446Z,41.00
2017-04-22T16:30:14.561Z,40.70
2017-04-22T16:31:11.851Z,41.00
2017-04-22T16:32:08.670Z,41.40
2017-04-22T16:33:06.195Z,41.50
2017-04-22T16:34:03.284Z,41.80
2017-04-22T16:35:00.792Z,42.00
2017-04-22T16:36:00.380Z,41.90
2017-04-22T16:36:56.674Z,42.20
2017-04-22T16:37:54.727Z,43.00
2017-04-22T16:38:52.124Z,42.70
2017-04-22T16:39:49.421Z,43.30
2017-04-22T16:40:47.133Z,42.50
2017-04-22T16:41:44.590Z,41.90
2017-04-22T16:42:41.898Z,42.50
2017-04-22T16:43:40.225Z,43.40
2017-04-22T16:44:37.622Z,43.40
2017-04-22T16:45:34.886Z,42.40
2017-04-22T16:46:34.908Z,43.30
2017-04-22T16:47:29.854Z,42.80
2017-04-22T16:48:27.433Z,43.30
2017-04-22T16:49:24.825Z,44.10
2017-04-22T16:50:22.423Z,44.00
2017-04-22T16:51:19.714Z,44.20
2017-04-22T16:52:19.730Z,44.60
2017-04-22T16:53:14.690Z,44.10
2017-04-22T16:54:12.025Z,44.60
2017-04-22T16:55:09.447Z,44.60
2017-04-22T16:56:07.012Z,45.20
2017-04-22T16:57:04.977Z,45.40
2017-04-22T16:58:01.523Z,45.50
2017-04-22T16:58:59.040Z,45.50
2017-04-22T16:59:56.606Z,46.10
2017-04-22T17:00:54.096Z,45.80
2017-04-22T17:01:51.304Z,46.10
2017-04-22T17:02:50.011Z,46.50
2017-04-22T17:03:47.399Z,46.70
2017-04-22T17:04:45.273Z,46.30
2017-04-22T17:05:42.557Z,46.00
2017-04-22T17:06:39.965Z,46.30
2017-04-22T17:07:37.544Z,46.40
2017-04-22T17:08:34.786Z,46.10
2017-04-22T17:09:32.270Z,45.90
2017-04-22T17:10:30.063Z,46.00
2017-04-22T17:11:27.332Z,44.90
2017-04-22T17:12:25.329Z,44.40
2017-04-22T17:13:22.177Z,43.90
2017-04-22T17:14:19.446Z,44.90
2017-04-22T17:15:16.820Z,44.30
2017-04-22T17:16:14.373Z,44.10
2017-04-22T17:17:12.376Z,43.30
2017-04-22T17:18:09.081Z,43.50
2017-04-22T17:19:08.340Z,43.30
2017-04-22T17:20:05.960Z,43.30
2017-04-22T17:21:02.996Z,43.60
2017-04-22T17:22:00.966Z,44.50
2017-04-22T17:22:59.521Z,43.50
2017-04-22T17:23:56.590Z,43.60
2017-04-22T17:24:55.272Z,43.90
2017-04-22T17:25:53.013Z,44.30
2017-04-22T17:26:50.711Z,45.10
2017-04-22T17:27:48.530Z,43.80
2017-04-22T17:28:46.378Z,43.90
2017-04-22T17:29:44.067Z,44.10
2017-04-22T17:30:42.268Z,44.70
2017-04-22T17:31:40.380Z,44.60
2017-04-22T17:32:38.445Z,44.50
2017-04-22T17:33:36.335Z,44.70
2017-04-22T17:34:34.767Z,44.60
2017-04-22T17:35:32.637Z,45.30
2017-04-22T17:36:30.472Z,45.30
2017-04-22T17:37:28.221Z,45.60
2017-04-22T17:38:25.632Z,45.80
2017-04-22T17:39:24.896Z,45.60
2017-04-22T17:40:21.793Z,46.30
2017-04-22T17:41:19.481Z,46.60
2017-04-22T17:42:17.331Z,46.80
2017-04-22T17:43:15.150Z,46.50
2017-04-22T17:44:13.568Z,47.20
2017-04-22T17:45:11.453Z,47.00
2017-04-22T17:46:09.196Z,47.40
2017-04-22T17:47:07.014Z,48.90
2017-04-22T17:48:05.599Z,48.10
2017-04-22T17:49:03.267Z,47.90
2017-04-22T17:50:03.380Z,48.80
2017-04-22T17:50:58.833Z,48.70
2017-04-22T17:51:56.133Z,48.30
2017-04-22T17:52:54.271Z,48.20
2017-04-22T17:53:51.359Z,48.10
2017-04-22T17:54:49.514Z,48.30
2017-04-22T17:55:46.593Z,48.30
2017-04-22T17:56:44.731Z,48.50
2017-04-22T17:57:43.313Z,48.10
2017-04-22T17:58:42.067Z,48.00
2017-04-22T17:59:38.841Z,48.30
2017-04-22T18:00:38.048Z,48.40
2017-04-22T18:01:34.841Z,48.50
2017-04-22T18:02:32.089Z,48.90
2017-04-22T18:03:30.068Z,48.60
2017-04-22T18:04:28.278Z,48.00
2017-04-22T18:05:26.206Z,48.30
2017-04-22T18:06:23.985Z,48.50
2017-04-22T18:07:22.093Z,48.70
2017-04-22T18:08:21.081Z,48.60
2017-04-22T18:09:16.793Z,49.00
2017-04-22T18:10:16.229Z,49.20
2017-04-22T18:11:14.914Z,48.60
2017-04-22T18:12:11.341Z,49.20
2017-04-22T18:13:09.490Z,49.90
2017-04-22T18:14:06.519Z,49.80
2017-04-22T18:15:04.173Z,49.70
2017-04-22T18:16:02.253Z,49.70
2017-04-22T18:17:01.418Z,50.30
2017-04-22T18:17:57.957Z,50.60
2017-04-22T18:18:55.903Z,51.20
2017-04-22T18:19:54.221Z,51.30
2017-04-22T18:20:52.678Z,52.10
2017-04-22T18:21:50.170Z,52.00
2017-04-22T18:22:47.339Z,52.10
2017-04-22T18:23:46.563Z,52.70
2017-04-22T18:24:43.837Z,52.80
2017-04-22T18:25:43.570Z,53.70
2017-04-22T18:26:40.274Z,53.60
2017-04-22T18:27:38.551Z,53.70
2017-04-22T18:28:36.143Z,53.60
2017-04-22T18:29:34.661Z,54.20
2017-04-22T18:30:31.739Z,54.20
2017-04-22T18:31:30.237Z,54.40
2017-04-22T18:32:27.391Z,54.90
2017-04-22T18:33:26.696Z,55.00
2017-04-22T18:34:23.389Z,54.90
2017-04-22T18:35:23.370Z,55.00
2017-04-22T18:36:19.495Z,55.20
2017-04-22T18:37:16.901Z,55.00
2017-04-22T18:38:14.291Z,55.00
2017-04-22T18:39:11.560Z,55.30
2017-04-22T18:40:10.081Z,55.50
2017-04-22T18:41:06.990Z,55.50
2017-04-22T18:42:04.784Z,55.80
2017-04-22T18:43:02.490Z,56.00
2017-04-22T18:43:59.759Z,55.90
2017-04-22T18:44:57.594Z,56.00
2017-04-22T18:45:55.129Z,56.20
2017-04-22T18:46:53.427Z,56.80
2017-04-22T18:47:50.481Z,56.80
2017-04-22T18:48:48.957Z,57.20
2017-04-22T18:49:48.728Z,57.40
2017-04-22T18:50:45.709Z,57.50
2017-04-22T18:51:41.590Z,57.30
2017-04-22T18:52:40.986Z,57.50
2017-04-22T18:53:36.523Z,56.60
2017-04-22T18:54:34.677Z,56.40
2017-04-22T18:55:32.073Z,56.70
2017-04-22T18:56:31.563Z,56.70
2017-04-22T18:57:27.700Z,56.70
2017-04-22T18:58:26.665Z,57.00
2017-04-22T18:59:23.532Z,57.00
2017-04-22T19:00:21.474Z,57.30
2017-04-22T19:01:20.459Z,57.30
2017-04-22T19:02:17.105Z,57.20
2017-04-22T19:03:16.329Z,57.70
2017-04-22T19:04:15.216Z,57.50
2017-04-22T19:05:11.870Z,57.50
2017-04-22T19:06:08.635Z,57.50
2017-04-22T19:07:08.516Z,57.60
2017-04-22T19:08:06.485Z,57.60
2017-04-22T19:09:05.372Z,58.10
2017-04-22T19:10:01.662Z,58.60
2017-04-22T19:10:58.935Z,59.80
2017-04-22T19:11:57.675Z,60.70
2017-04-22T19:12:57.045Z,61.80
2017-04-22T19:13:54.945Z,64.60
2017-04-22T19:14:52.660Z,65.00
2017-04-22T19:15:50.222Z,65.10
2017-04-22T19:16:48.268Z,66.20
2017-04-22T19:17:45.289Z,65.70
2017-04-22T19:18:43.510Z,67.10
2017-04-22T19:19:41.849Z,68.60
2017-04-22T19:20:38.863Z,68.90
2017-04-22T19:21:36.555Z,67.90
2017-04-22T19:22:33.913Z,67.40
2017-04-22T19:23:32.106Z,65.30
2017-04-22T19:24:28.728Z,66.00
2017-04-22T19:25:26.359Z,66.10
2017-04-22T19:26:25.330Z,66.50
2017-04-22T19:27:22.779Z,64.60
2017-04-22T19:28:22.510Z,65.60
2017-04-22T19:29:18.587Z,64.40
2017-04-22T19:30:16.990Z,65.60
2017-04-22T19:31:17.978Z,65.20
2017-04-22T19:32:14.414Z,65.10
2017-04-22T19:33:12.764Z,65.70
2017-04-22T19:34:11.199Z,64.70
2017-04-22T19:35:09.162Z,64.40
2017-04-22T19:36:06.095Z,63.00
2017-04-22T19:37:03.285Z,64.60
2017-04-22T19:38:03.448Z,63.70
2017-04-22T19:38:58.878Z,62.40
2017-04-22T19:39:56.413Z,62.40
2017-04-22T19:40:54.939Z,61.80
2017-04-22T19:41:52.888Z,61.80
2017-04-22T19:42:50.530Z,62.00
2017-04-22T19:43:46.938Z,63.00
2017-04-22T19:44:44.694Z,63.30
2017-04-22T19:45:43.902Z,61.60
2017-04-22T19:46:41.839Z,61.40
2017-04-22T19:47:40.289Z,62.00
2017-04-22T19:48:38.101Z,61.50
2017-04-22T19:49:34.093Z,61.40
2017-04-22T19:50:31.964Z,62.40
2017-04-22T19:51:29.822Z,63.30
2017-04-22T19:52:26.295Z,62.10
2017-04-22T19:53:25.433Z,61.00
2017-04-22T19:54:22.670Z,61.50
2017-04-22T19:55:19.253Z,61.00
2017-04-22T19:56:18.459Z,60.70
2017-04-22T19:57:15.607Z,61.90
2017-04-22T19:58:15.599Z,61.90
2017-04-22T19:59:10.328Z,63.00
2017-04-22T20:00:09.666Z,63.10
2017-04-22T20:01:05.668Z,63.10
2017-04-22T20:02:03.243Z,64.30
2017-04-22T20:03:04.644Z,64.80
2017-04-22T20:03:59.505Z,63.90
2017-04-22T20:04:55.953Z,63.80
2017-04-22T20:05:53.719Z,64.60
2017-04-22T20:06:53.909Z,64.80
2017-04-22T20:07:50.319Z,64.50
2017-04-22T20:08:46.273Z,63.70
2017-04-22T20:09:46.437Z,63.80
2017-04-22T20:10:42.689Z,63.50
2017-04-22T20:11:40.175Z,63.80
2017-04-22T20:12:37.399Z,63.90
2017-04-22T20:13:36.382Z,64.10
2017-04-22T20:14:34.124Z,63.20
2017-04-22T20:15:31.195Z,64.10
2017-04-22T20:16:28.708Z,64.60
2017-04-22T20:17:25.928Z,63.80
2017-04-22T20:18:23.851Z,64.30
2017-04-22T20:19:21.098Z,64.60
2017-04-22T20:20:18.956Z,65.70
2017-04-22T20:21:17.244Z,64.00
2017-04-22T20:22:14.494Z,64.00
2017-04-22T20:23:16.843Z,64.20
2017-04-22T20:24:10.345Z,64.40
2017-04-22T20:25:08.072Z,64.60
2017-04-22T20:26:05.993Z,64.30
2017-04-22T20:27:02.990Z,63.90
2017-04-22T20:28:02.127Z,64.50
2017-04-22T20:28:57.371Z,64.50
2017-04-22T20:29:55.942Z,64.20
2017-04-22T20:30:53.320Z,64.20
2017-04-22T20:31:52.341Z,64.30
2017-04-22T20:32:49.357Z,64.20
2017-04-22T20:33:48.341Z,64.70
2017-04-22T20:34:45.376Z,64.60
2017-04-22T20:35:42.627Z,64.00
2017-04-22T20:36:41.271Z,64.00
2017-04-22T20:37:39.754Z,64.60
2017-04-22T20:38:36.468Z,64.20
2017-04-22T20:39:33.691Z,64.20
2017-04-22T20:40:33.976Z,64.60
2017-04-22T20:41:30.856Z,64.90
2017-04-22T20:42:28.997Z,64.90
2017-04-22T20:43:28.730Z,65.00
2017-04-22T20:44:24.150Z,64.40
2017-04-22T20:45:24.006Z,64.10
2017-04-22T20:46:22.948Z,63.40
2017-04-22T20:47:21.600Z,64.00
2017-04-22T20:48:20.968Z,64.00
2017-04-22T20:49:17.543Z,64.30
2017-04-22T20:50:16.362Z,65.20
2017-04-22T20:51:11.865Z,64.90
2017-04-22T20:52:09.527Z,64.00
2017-04-22T20:53:06.957Z,65.20
2017-04-22T20:54:05.718Z,64.00
2017-04-22T20:55:05.953Z,64.00
2017-04-22T20:56:06.539Z,64.40
2017-04-22T20:57:00.114Z,64.60
2017-04-22T20:57:58.667Z,63.50
2017-04-22T20:58:56.693Z,63.50
2017-04-22T20:59:53.831Z,63.40
2017-04-22T21:00:51.610Z,62.60
2017-04-22T21:01:48.952Z,62.40
2017-04-22T21:02:47.039Z,62.60
2017-04-22T21:03:45.042Z,62.50
2017-04-22T21:04:42.441Z,62.20
2017-04-22T21:05:40.747Z,62.70
2017-04-22T21:06:38.117Z,62.30
2017-04-22T21:07:35.526Z,60.50
2017-04-22T21:08:32.946Z,60.60
2017-04-22T21:09:30.277Z,60.20
2017-04-22T21:10:28.544Z,60.10
2017-04-22T21:11:25.931Z,60.10
2017-04-22T21:12:23.266Z,59.70
2017-04-22T21:13:20.797Z,60.60
2017-04-22T21:14:18.987Z,60.20
2017-04-22T21:15:16.459Z,60.10
2017-04-22T21:16:14.465Z,60.20
2017-04-22T21:17:12.448Z,59.80
2017-04-22T21:18:09.783Z,59.70
2017-04-22T21:19:09.408Z,59.70
2017-04-22T21:20:07.710Z,59.70
2017-04-22T21:21:05.118Z,59.80
2017-04-22T21:22:02.480Z,59.80
2017-04-22T21:22:59.798Z,60.60
2017-04-22T21:23:57.154Z,60.00
2017-04-22T21:24:54.480Z,59.90
2017-04-22T21:25:51.896Z,59.80
2017-04-22T21:26:49.956Z,59.60
2017-04-22T21:27:48.054Z,59.20
2017-04-22T21:28:45.381Z,59.20
2017-04-22T21:29:42.730Z,58.90
2017-04-22T21:30:40.121Z,58.80
2017-04-22T21:31:37.569Z,58.90
2017-04-22T21:32:34.978Z,58.20
2017-04-22T21:33:32.841Z,58.80
2017-04-22T21:34:30.175Z,59.30
2017-04-22T21:35:28.538Z,59.60
2017-04-22T21:36:25.875Z,58.50
2017-04-22T21:37:23.970Z,58.40
2017-04-22T21:38:22.769Z,59.10
2017-04-22T21:39:20.880Z,58.30
2017-04-22T21:40:18.937Z,58.80
2017-04-22T21:41:16.284Z,58.80
2017-04-22T21:42:13.617Z,58.90
2017-04-22T21:43:11.749Z,58.80
2017-04-22T21:44:09.821Z,58.90
2017-04-22T21:45:07.915Z,59.40
2017-04-22T21:46:06.638Z,59.80
2017-04-22T21:47:03.987Z,59.80
2017-04-22T21:48:02.137Z,59.50
2017-04-22T21:48:59.527Z,59.40
2017-04-22T21:49:56.863Z,59.60
2017-04-22T21:50:54.207Z,60.20
2017-04-22T21:51:52.421Z,60.30
2017-04-22T21:52:49.749Z,60.30
2017-04-22T21:53:47.176Z,60.90
2017-04-22T21:54:44.506Z,60.70
2017-04-22T21:55:41.856Z,60.70
2017-04-22T21:56:39.962Z,61.30
2017-04-22T21:57:37.295Z,61.30
2017-04-22T21:58:35.420Z,61.50
2017-04-22T21:59:32.724Z,61.40
2017-04-22T22:00:30.749Z,61.20
2017-04-22T22:01:29.443Z,61.40
2017-04-22T22:02:26.846Z,61.40
2017-04-22T22:03:25.729Z,61.00
2017-04-22T22:04:23.953Z,61.00
2017-04-22T22:15:03.539Z,61.20
2017-04-22T22:16:00.911Z,59.30
2017-04-22T22:16:58.280Z,58.30
2017-04-22T22:17:57.040Z,58.90
2017-04-22T22:18:54.706Z,59.70
2017-04-22T22:19:52.073Z,60.00
2017-04-22T22:20:49.483Z,59.60
2017-04-22T22:21:46.821Z,59.60
2017-04-22T22:22:44.197Z,60.30
2017-04-22T22:23:42.078Z,60.20
2017-04-22T22:24:41.807Z,60.30
2017-04-22T22:25:39.951Z,60.10
2017-04-22T22:26:38.705Z,60.40